sensor_id;sensor_type;location;lat;lon;timestamp;temperature;humidity
24103;DHT22;12278;53.058;9.028;2023-10-08T00:02:49;12.40;99.90
24103;DHT22;12278;53.058;9.028;2023-10-08T00:06:50;12.40;99.90
24103;DHT22;12278;53.058;9.028;2023-10-08T00:10:52;12.40;99.90
24103;DHT22;12278;53.058;9.028;2023-10-08T00:14:53;12.40;99.90
24103;DHT22;12278;53.058;9.028;2023-10-08T00:18:54;12.30;99.90
24103;DHT22;12278;53.058;9.028;2023-10-08T00:23:03;12.40;99.90
24103;DHT22;12278;53.058;9.028;2023-10-08T00:27:11;12.30;99.90
24103;DHT22;12278;53.058;9.028;2023-10-08T00:31:15;12.30;99.90
24103;DHT22;12278;53.058;9.028;2023-10-08T00:35:18;12.40;99.90
24103;DHT22;12278;53.058;9.028;2023-10-08T00:39:20;12.40;99.90
24103;DHT22;12278;53.058;9.028;2023-10-08T00:47:33;12.30;99.90
24103;DHT22;12278;53.058;9.028;2023-10-08T00:51:40;12.30;99.90
24103;DHT22;12278;53.058;9.028;2023-10-08T00:55:41;12.30;99.90
24103;DHT22;12278;53.058;9.028;2023-10-08T00:59:47;12.20;99.90
24103;DHT22;12278;53.058;9.028;2023-10-08T01:03:53;12.20;99.90
24103;DHT22;12278;53.058;9.028;2023-10-08T01:07:55;12.30;99.90
24103;DHT22;12278;53.058;9.028;2023-10-08T01:12:18;12.30;99.90
24103;DHT22;12278;53.058;9.028;2023-10-08T01:16:20;12.30;99.90
24103;DHT22;12278;53.058;9.028;2023-10-08T01:20:21;12.30;99.90
24103;DHT22;12278;53.058;9.028;2023-10-08T01:24:37;12.30;99.90
24103;DHT22;12278;53.058;9.028;2023-10-08T01:28:37;12.30;99.90
24103;DHT22;12278;53.058;9.028;2023-10-08T01:32:38;12.40;99.90
24103;DHT22;12278;53.058;9.028;2023-10-08T01:36:39;12.40;99.90
24103;DHT22;12278;53.058;9.028;2023-10-08T01:40:40;12.30;99.90
24103;DHT22;12278;53.058;9.028;2023-10-08T01:44:41;12.30;99.90
24103;DHT22;12278;53.058;9.028;2023-10-08T01:48:42;12.30;99.90
24103;DHT22;12278;53.058;9.028;2023-10-08T01:52:45;12.30;99.90
24103;DHT22;12278;53.058;9.028;2023-10-08T01:56:47;12.20;99.90
24103;DHT22;12278;53.058;9.028;2023-10-08T02:00:48;12.00;99.90
24103;DHT22;12278;53.058;9.028;2023-10-08T02:04:49;12.00;99.90
24103;DHT22;12278;53.058;9.028;2023-10-08T02:08:49;12.00;99.90
24103;DHT22;12278;53.058;9.028;2023-10-08T02:12:50;12.00;99.90
24103;DHT22;12278;53.058;9.028;2023-10-08T02:16:51;12.00;99.90
24103;DHT22;12278;53.058;9.028;2023-10-08T02:20:56;12.10;99.90
24103;DHT22;12278;53.058;9.028;2023-10-08T02:24:56;12.10;99.90
24103;DHT22;12278;53.058;9.028;2023-10-08T02:29:01;12.20;99.90
24103;DHT22;12278;53.058;9.028;2023-10-08T02:33:02;12.20;99.90
24103;DHT22;12278;53.058;9.028;2023-10-08T02:37:02;12.10;99.90
24103;DHT22;12278;53.058;9.028;2023-10-08T02:41:06;12.10;99.90
24103;DHT22;12278;53.058;9.028;2023-10-08T02:45:07;12.00;99.90
24103;DHT22;12278;53.058;9.028;2023-10-08T02:49:14;12.10;99.90
24103;DHT22;12278;53.058;9.028;2023-10-08T02:53:19;12.10;99.90
24103;DHT22;12278;53.058;9.028;2023-10-08T02:57:23;12.00;99.90
24103;DHT22;12278;53.058;9.028;2023-10-08T03:01:24;12.10;99.90
24103;DHT22;12278;53.058;9.028;2023-10-08T03:05:26;12.10;99.90
24103;DHT22;12278;53.058;9.028;2023-10-08T03:09:36;12.20;99.90
24103;DHT22;12278;53.058;9.028;2023-10-08T03:13:43;12.10;99.90
24103;DHT22;12278;53.058;9.028;2023-10-08T03:17:46;12.00;99.90
24103;DHT22;12278;53.058;9.028;2023-10-08T03:21:51;12.10;99.90
24103;DHT22;12278;53.058;9.028;2023-10-08T03:25:52;12.10;99.90
24103;DHT22;12278;53.058;9.028;2023-10-08T03:29:59;12.10;99.90
24103;DHT22;12278;53.058;9.028;2023-10-08T03:33:59;12.10;99.90
24103;DHT22;12278;53.058;9.028;2023-10-08T03:38:00;12.00;99.90
24103;DHT22;12278;53.058;9.028;2023-10-08T03:42:20;12.00;99.90
24103;DHT22;12278;53.058;9.028;2023-10-08T03:46:21;12.00;99.90
24103;DHT22;12278;53.058;9.028;2023-10-08T03:50:23;12.00;99.90
24103;DHT22;12278;53.058;9.028;2023-10-08T03:54:32;12.00;99.90
24103;DHT22;12278;53.058;9.028;2023-10-08T03:58:36;12.00;99.90
24103;DHT22;12278;53.058;9.028;2023-10-08T04:02:42;12.00;99.90
24103;DHT22;12278;53.058;9.028;2023-10-08T04:06:46;12.00;99.90
24103;DHT22;12278;53.058;9.028;2023-10-08T04:10:51;12.00;99.90
24103;DHT22;12278;53.058;9.028;2023-10-08T04:15:24;12.00;99.90
24103;DHT22;12278;53.058;9.028;2023-10-08T04:19:25;11.90;99.90
24103;DHT22;12278;53.058;9.028;2023-10-08T04:23:28;11.90;99.90
24103;DHT22;12278;53.058;9.028;2023-10-08T04:27:29;12.00;99.90
24103;DHT22;12278;53.058;9.028;2023-10-08T04:31:34;12.00;99.90
24103;DHT22;12278;53.058;9.028;2023-10-08T04:35:40;12.00;99.90
24103;DHT22;12278;53.058;9.028;2023-10-08T04:39:55;12.10;99.90
24103;DHT22;12278;53.058;9.028;2023-10-08T04:43:59;12.10;99.90
24103;DHT22;12278;53.058;9.028;2023-10-08T04:48:07;12.10;99.90
24103;DHT22;12278;53.058;9.028;2023-10-08T04:52:11;12.00;99.90
24103;DHT22;12278;53.058;9.028;2023-10-08T04:56:15;12.10;99.90
24103;DHT22;12278;53.058;9.028;2023-10-08T05:00:19;12.00;99.90
24103;DHT22;12278;53.058;9.028;2023-10-08T05:04:40;12.10;99.90
24103;DHT22;12278;53.058;9.028;2023-10-08T05:08:52;12.00;99.90
24103;DHT22;12278;53.058;9.028;2023-10-08T05:12:59;12.00;99.90
24103;DHT22;12278;53.058;9.028;2023-10-08T05:17:06;12.00;99.90
24103;DHT22;12278;53.058;9.028;2023-10-08T05:21:10;12.00;99.90
24103;DHT22;12278;53.058;9.028;2023-10-08T05:25:26;12.00;99.90
24103;DHT22;12278;53.058;9.028;2023-10-08T05:29:35;12.00;99.90
24103;DHT22;12278;53.058;9.028;2023-10-08T05:34:14;12.00;99.90
24103;DHT22;12278;53.058;9.028;2023-10-08T05:38:21;12.00;99.90
24103;DHT22;12278;53.058;9.028;2023-10-08T05:42:42;12.00;99.90
24103;DHT22;12278;53.058;9.028;2023-10-08T05:47:00;12.00;99.90
24103;DHT22;12278;53.058;9.028;2023-10-08T05:51:22;12.00;99.90
24103;DHT22;12278;53.058;9.028;2023-10-08T05:55:44;12.10;99.90
24103;DHT22;12278;53.058;9.028;2023-10-08T05:59:48;12.10;99.90
24103;DHT22;12278;53.058;9.028;2023-10-08T06:03:57;12.20;99.90
24103;DHT22;12278;53.058;9.028;2023-10-08T06:08:03;12.20;99.90
24103;DHT22;12278;53.058;9.028;2023-10-08T06:12:15;12.20;99.90
24103;DHT22;12278;53.058;9.028;2023-10-08T06:16:30;12.20;99.90
24103;DHT22;12278;53.058;9.028;2023-10-08T06:20:42;12.30;99.90
24103;DHT22;12278;53.058;9.028;2023-10-08T06:24:45;12.30;99.90
24103;DHT22;12278;53.058;9.028;2023-10-08T06:28:46;12.40;99.90
24103;DHT22;12278;53.058;9.028;2023-10-08T06:32:46;12.50;99.90
24103;DHT22;12278;53.058;9.028;2023-10-08T06:36:49;12.50;99.90
24103;DHT22;12278;53.058;9.028;2023-10-08T06:40:54;12.60;99.90
24103;DHT22;12278;53.058;9.028;2023-10-08T06:44:54;12.60;99.90
24103;DHT22;12278;53.058;9.028;2023-10-08T06:48:59;12.80;99.90
24103;DHT22;12278;53.058;9.028;2023-10-08T06:52:59;12.90;99.90
24103;DHT22;12278;53.058;9.028;2023-10-08T06:57:00;13.00;99.90
24103;DHT22;12278;53.058;9.028;2023-10-08T07:01:01;13.10;99.90
24103;DHT22;12278;53.058;9.028;2023-10-08T07:05:09;13.10;99.90
24103;DHT22;12278;53.058;9.028;2023-10-08T07:09:10;13.20;99.90
24103;DHT22;12278;53.058;9.028;2023-10-08T07:13:29;13.20;99.90
24103;DHT22;12278;53.058;9.028;2023-10-08T07:17:30;13.20;99.90
24103;DHT22;12278;53.058;9.028;2023-10-08T07:21:40;13.20;99.90
24103;DHT22;12278;53.058;9.028;2023-10-08T07:25:51;13.20;99.90
24103;DHT22;12278;53.058;9.028;2023-10-08T07:29:52;13.30;99.90
24103;DHT22;12278;53.058;9.028;2023-10-08T07:33:56;13.50;99.90
24103;DHT22;12278;53.058;9.028;2023-10-08T07:37:56;13.50;99.90
24103;DHT22;12278;53.058;9.028;2023-10-08T07:41:57;13.60;99.90
24103;DHT22;12278;53.058;9.028;2023-10-08T07:45:59;13.60;99.90
24103;DHT22;12278;53.058;9.028;2023-10-08T07:50:00;13.80;99.90
24103;DHT22;12278;53.058;9.028;2023-10-08T07:54:01;13.80;99.90
24103;DHT22;12278;53.058;9.028;2023-10-08T07:58:02;14.20;99.90
24103;DHT22;12278;53.058;9.028;2023-10-08T08:02:05;14.90;99.90
24103;DHT22;12278;53.058;9.028;2023-10-08T08:06:10;15.70;99.90
24103;DHT22;12278;53.058;9.028;2023-10-08T08:10:11;16.80;99.90
24103;DHT22;12278;53.058;9.028;2023-10-08T08:14:12;17.50;99.90
24103;DHT22;12278;53.058;9.028;2023-10-08T08:18:16;17.50;99.90
24103;DHT22;12278;53.058;9.028;2023-10-08T08:22:22;17.80;99.90
24103;DHT22;12278;53.058;9.028;2023-10-08T08:26:23;18.30;99.90
24103;DHT22;12278;53.058;9.028;2023-10-08T08:30:32;18.30;99.90
24103;DHT22;12278;53.058;9.028;2023-10-08T08:34:34;17.60;99.90
24103;DHT22;12278;53.058;9.028;2023-10-08T08:38:36;17.40;99.90
24103;DHT22;12278;53.058;9.028;2023-10-08T08:42:39;18.00;99.90
24103;DHT22;12278;53.058;9.028;2023-10-08T08:46:40;18.00;99.90
24103;DHT22;12278;53.058;9.028;2023-10-08T08:50:41;18.20;99.90
24103;DHT22;12278;53.058;9.028;2023-10-08T08:54:42;18.10;99.90
24103;DHT22;12278;53.058;9.028;2023-10-08T08:58:43;18.30;99.90
24103;DHT22;12278;53.058;9.028;2023-10-08T09:02:44;18.50;99.90
24103;DHT22;12278;53.058;9.028;2023-10-08T09:06:47;18.40;99.90
24103;DHT22;12278;53.058;9.028;2023-10-08T09:10:49;18.50;99.90
24103;DHT22;12278;53.058;9.028;2023-10-08T09:14:52;18.10;99.90
24103;DHT22;12278;53.058;9.028;2023-10-08T09:18:54;17.70;99.90
24103;DHT22;12278;53.058;9.028;2023-10-08T09:23:07;18.40;99.90
24103;DHT22;12278;53.058;9.028;2023-10-08T09:27:11;18.50;99.90
24103;DHT22;12278;53.058;9.028;2023-10-08T09:31:16;19.00;99.90
24103;DHT22;12278;53.058;9.028;2023-10-08T09:35:17;17.60;99.90
24103;DHT22;12278;53.058;9.028;2023-10-08T09:39:18;17.70;99.90
24103;DHT22;12278;53.058;9.028;2023-10-08T09:43:23;17.50;99.90
24103;DHT22;12278;53.058;9.028;2023-10-08T09:47:26;17.70;99.90
24103;DHT22;12278;53.058;9.028;2023-10-08T09:51:29;17.90;99.90
24103;DHT22;12278;53.058;9.028;2023-10-08T09:55:30;18.60;99.90
24103;DHT22;12278;53.058;9.028;2023-10-08T09:59:32;18.00;99.90
24103;DHT22;12278;53.058;9.028;2023-10-08T10:03:33;18.30;99.90
24103;DHT22;12278;53.058;9.028;2023-10-08T10:07:37;18.30;99.90
24103;DHT22;12278;53.058;9.028;2023-10-08T10:15:06;18.70;99.90
24103;DHT22;12278;53.058;9.028;2023-10-08T10:19:17;18.30;99.90
24103;DHT22;12278;53.058;9.028;2023-10-08T10:27:36;17.40;99.90
24103;DHT22;12278;53.058;9.028;2023-10-08T10:31:38;17.90;99.90
24103;DHT22;12278;53.058;9.028;2023-10-08T10:35:39;18.50;99.90
24103;DHT22;12278;53.058;9.028;2023-10-08T10:39:42;18.50;99.90
24103;DHT22;12278;53.058;9.028;2023-10-08T10:43:43;18.10;99.90
24103;DHT22;12278;53.058;9.028;2023-10-08T10:47:53;17.40;99.90
24103;DHT22;12278;53.058;9.028;2023-10-08T10:52:01;16.80;99.90
24103;DHT22;12278;53.058;9.028;2023-10-08T10:56:05;16.70;99.90
24103;DHT22;12278;53.058;9.028;2023-10-08T11:00:26;17.00;99.90
24103;DHT22;12278;53.058;9.028;2023-10-08T11:04:47;17.10;99.90
24103;DHT22;12278;53.058;9.028;2023-10-08T11:08:52;18.00;99.90
24103;DHT22;12278;53.058;9.028;2023-10-08T11:12:53;18.90;99.90
24103;DHT22;12278;53.058;9.028;2023-10-08T11:16:55;18.70;99.90
24103;DHT22;12278;53.058;9.028;2023-10-08T11:21:06;17.90;99.90
24103;DHT22;12278;53.058;9.028;2023-10-08T11:25:23;18.20;99.90
24103;DHT22;12278;53.058;9.028;2023-10-08T11:29:28;16.70;99.90
24103;DHT22;12278;53.058;9.028;2023-10-08T11:33:29;17.30;99.90
24103;DHT22;12278;53.058;9.028;2023-10-08T11:37:31;17.30;99.90
24103;DHT22;12278;53.058;9.028;2023-10-08T11:41:35;17.20;99.90
24103;DHT22;12278;53.058;9.028;2023-10-08T11:45:51;16.90;99.90
24103;DHT22;12278;53.058;9.028;2023-10-08T11:49:52;17.10;99.90
24103;DHT22;12278;53.058;9.028;2023-10-08T11:54:10;17.40;99.90
24103;DHT22;12278;53.058;9.028;2023-10-08T11:58:14;17.80;99.90
24103;DHT22;12278;53.058;9.028;2023-10-08T12:02:20;18.00;99.90
24103;DHT22;12278;53.058;9.028;2023-10-08T12:06:21;17.80;99.90
24103;DHT22;12278;53.058;9.028;2023-10-08T12:10:21;17.50;99.90
24103;DHT22;12278;53.058;9.028;2023-10-08T12:14:22;17.40;99.90
24103;DHT22;12278;53.058;9.028;2023-10-08T12:18:30;17.30;99.90
24103;DHT22;12278;53.058;9.028;2023-10-08T12:22:31;17.10;99.90
24103;DHT22;12278;53.058;9.028;2023-10-08T12:26:31;17.30;99.90
24103;DHT22;12278;53.058;9.028;2023-10-08T12:30:33;17.50;99.90
24103;DHT22;12278;53.058;9.028;2023-10-08T12:34:41;17.60;99.90
24103;DHT22;12278;53.058;9.028;2023-10-08T12:38:43;17.00;99.90
24103;DHT22;12278;53.058;9.028;2023-10-08T12:42:44;17.20;99.90
24103;DHT22;12278;53.058;9.028;2023-10-08T12:46:45;17.30;99.90
24103;DHT22;12278;53.058;9.028;2023-10-08T12:50:49;17.50;99.90
24103;DHT22;12278;53.058;9.028;2023-10-08T12:54:59;17.50;99.90
24103;DHT22;12278;53.058;9.028;2023-10-08T12:59:04;17.50;99.90
24103;DHT22;12278;53.058;9.028;2023-10-08T13:03:10;17.90;99.90
24103;DHT22;12278;53.058;9.028;2023-10-08T13:07:23;18.20;99.90
24103;DHT22;12278;53.058;9.028;2023-10-08T13:11:27;17.90;99.90
24103;DHT22;12278;53.058;9.028;2023-10-08T13:15:29;17.90;99.90
24103;DHT22;12278;53.058;9.028;2023-10-08T13:19:35;17.90;99.90
24103;DHT22;12278;53.058;9.028;2023-10-08T13:23:36;17.50;99.90
24103;DHT22;12278;53.058;9.028;2023-10-08T13:27:36;17.10;99.90
24103;DHT22;12278;53.058;9.028;2023-10-08T13:31:39;17.20;99.90
24103;DHT22;12278;53.058;9.028;2023-10-08T13:35:40;17.40;99.90
24103;DHT22;12278;53.058;9.028;2023-10-08T13:39:40;17.40;99.90
24103;DHT22;12278;53.058;9.028;2023-10-08T13:43:46;18.10;99.90
24103;DHT22;12278;53.058;9.028;2023-10-08T13:47:47;18.80;99.90
24103;DHT22;12278;53.058;9.028;2023-10-08T13:51:48;18.70;99.90
24103;DHT22;12278;53.058;9.028;2023-10-08T13:55:57;18.90;99.90
24103;DHT22;12278;53.058;9.028;2023-10-08T14:00:00;19.90;99.00
24103;DHT22;12278;53.058;9.028;2023-10-08T14:04:02;20.40;97.10
24103;DHT22;12278;53.058;9.028;2023-10-08T14:08:06;20.60;96.70
24103;DHT22;12278;53.058;9.028;2023-10-08T14:12:13;20.80;96.40
24103;DHT22;12278;53.058;9.028;2023-10-08T14:16:15;21.80;94.40
24103;DHT22;12278;53.058;9.028;2023-10-08T14:20:18;22.30;93.80
24103;DHT22;12278;53.058;9.028;2023-10-08T14:24:24;20.30;94.90
24103;DHT22;12278;53.058;9.028;2023-10-08T14:28:27;20.20;95.30
24103;DHT22;12278;53.058;9.028;2023-10-08T14:32:55;19.30;98.40
24103;DHT22;12278;53.058;9.028;2023-10-08T14:36:57;18.30;99.90
24103;DHT22;12278;53.058;9.028;2023-10-08T14:41:16;17.80;99.90
24103;DHT22;12278;53.058;9.028;2023-10-08T14:45:36;17.40;99.90
24103;DHT22;12278;53.058;9.028;2023-10-08T14:49:37;17.80;99.90
24103;DHT22;12278;53.058;9.028;2023-10-08T14:53:38;19.00;98.70
24103;DHT22;12278;53.058;9.028;2023-10-08T14:57:40;19.30;99.60
24103;DHT22;12278;53.058;9.028;2023-10-08T15:01:42;20.40;96.80
24103;DHT22;12278;53.058;9.028;2023-10-08T15:05:44;19.30;96.20
24103;DHT22;12278;53.058;9.028;2023-10-08T15:09:45;18.70;98.80
24103;DHT22;12278;53.058;9.028;2023-10-08T15:13:46;18.10;99.90
24103;DHT22;12278;53.058;9.028;2023-10-08T15:17:47;17.50;99.90
24103;DHT22;12278;53.058;9.028;2023-10-08T15:21:50;17.20;99.90
24103;DHT22;12278;53.058;9.028;2023-10-08T15:25:51;16.90;99.90
24103;DHT22;12278;53.058;9.028;2023-10-08T15:29:51;16.80;99.90
24103;DHT22;12278;53.058;9.028;2023-10-08T15:33:52;16.50;99.90
24103;DHT22;12278;53.058;9.028;2023-10-08T15:37:54;16.20;99.90
24103;DHT22;12278;53.058;9.028;2023-10-08T15:41:54;16.10;99.90
24103;DHT22;12278;53.058;9.028;2023-10-08T15:45:55;15.90;99.90
24103;DHT22;12278;53.058;9.028;2023-10-08T15:49:56;15.90;99.90
24103;DHT22;12278;53.058;9.028;2023-10-08T15:53:58;15.80;99.90
24103;DHT22;12278;53.058;9.028;2023-10-08T15:58:00;15.80;99.90
24103;DHT22;12278;53.058;9.028;2023-10-08T16:02:00;15.70;99.90
24103;DHT22;12278;53.058;9.028;2023-10-08T16:06:01;15.70;99.90
24103;DHT22;12278;53.058;9.028;2023-10-08T16:10:01;15.60;99.90
24103;DHT22;12278;53.058;9.028;2023-10-08T16:14:02;15.60;99.90
24103;DHT22;12278;53.058;9.028;2023-10-08T16:18:03;15.50;99.90
24103;DHT22;12278;53.058;9.028;2023-10-08T16:22:03;15.40;99.90
24103;DHT22;12278;53.058;9.028;2023-10-08T16:26:04;15.30;99.90
24103;DHT22;12278;53.058;9.028;2023-10-08T16:30:06;15.10;99.90
24103;DHT22;12278;53.058;9.028;2023-10-08T16:34:11;15.00;99.90
24103;DHT22;12278;53.058;9.028;2023-10-08T16:38:12;14.90;99.90
24103;DHT22;12278;53.058;9.028;2023-10-08T16:42:14;14.90;99.90
24103;DHT22;12278;53.058;9.028;2023-10-08T16:46:14;14.80;99.90
24103;DHT22;12278;53.058;9.028;2023-10-08T16:50:15;14.90;99.90
24103;DHT22;12278;53.058;9.028;2023-10-08T16:54:17;14.90;99.90
24103;DHT22;12278;53.058;9.028;2023-10-08T16:58:19;14.80;99.90
24103;DHT22;12278;53.058;9.028;2023-10-08T17:02:20;14.80;99.90
24103;DHT22;12278;53.058;9.028;2023-10-08T17:06:20;14.70;99.90
24103;DHT22;12278;53.058;9.028;2023-10-08T17:10:21;14.70;99.90
24103;DHT22;12278;53.058;9.028;2023-10-08T17:14:21;14.60;99.90
24103;DHT22;12278;53.058;9.028;2023-10-08T17:18:23;14.60;99.90
24103;DHT22;12278;53.058;9.028;2023-10-08T17:22:25;14.50;99.90
24103;DHT22;12278;53.058;9.028;2023-10-08T17:26:26;14.50;99.90
24103;DHT22;12278;53.058;9.028;2023-10-08T17:30:26;14.40;99.90
24103;DHT22;12278;53.058;9.028;2023-10-08T17:34:27;14.40;99.90
24103;DHT22;12278;53.058;9.028;2023-10-08T17:38:27;14.50;99.90
24103;DHT22;12278;53.058;9.028;2023-10-08T17:42:28;14.60;99.90
24103;DHT22;12278;53.058;9.028;2023-10-08T17:46:29;14.70;99.90
24103;DHT22;12278;53.058;9.028;2023-10-08T17:50:31;14.70;99.90
24103;DHT22;12278;53.058;9.028;2023-10-08T17:54:33;14.50;99.90
24103;DHT22;12278;53.058;9.028;2023-10-08T17:58:33;14.50;99.90
24103;DHT22;12278;53.058;9.028;2023-10-08T18:02:38;14.50;99.90
24103;DHT22;12278;53.058;9.028;2023-10-08T18:06:41;14.50;99.90
24103;DHT22;12278;53.058;9.028;2023-10-08T18:10:41;14.60;99.90
24103;DHT22;12278;53.058;9.028;2023-10-08T18:14:42;14.60;99.90
24103;DHT22;12278;53.058;9.028;2023-10-08T18:18:44;14.50;99.90
24103;DHT22;12278;53.058;9.028;2023-10-08T18:22:49;14.60;99.90
24103;DHT22;12278;53.058;9.028;2023-10-08T18:26:53;14.60;99.90
24103;DHT22;12278;53.058;9.028;2023-10-08T18:30:54;14.60;99.90
24103;DHT22;12278;53.058;9.028;2023-10-08T18:34:54;14.50;99.90
24103;DHT22;12278;53.058;9.028;2023-10-08T18:38:56;14.50;99.90
24103;DHT22;12278;53.058;9.028;2023-10-08T18:42:58;14.40;99.90
24103;DHT22;12278;53.058;9.028;2023-10-08T18:46:59;14.50;99.90
24103;DHT22;12278;53.058;9.028;2023-10-08T18:51:14;14.50;99.90
24103;DHT22;12278;53.058;9.028;2023-10-08T18:55:18;14.30;99.90
24103;DHT22;12278;53.058;9.028;2023-10-08T18:59:21;14.40;99.90
24103;DHT22;12278;53.058;9.028;2023-10-08T19:03:21;14.40;99.90
24103;DHT22;12278;53.058;9.028;2023-10-08T19:07:23;14.40;99.90
24103;DHT22;12278;53.058;9.028;2023-10-08T19:11:24;14.40;99.90
24103;DHT22;12278;53.058;9.028;2023-10-08T19:15:26;14.30;99.90
24103;DHT22;12278;53.058;9.028;2023-10-08T19:19:27;14.30;99.90
24103;DHT22;12278;53.058;9.028;2023-10-08T19:23:34;14.40;99.90
24103;DHT22;12278;53.058;9.028;2023-10-08T19:27:37;14.20;99.90
24103;DHT22;12278;53.058;9.028;2023-10-08T19:31:38;14.20;99.90
24103;DHT22;12278;53.058;9.028;2023-10-08T19:35:39;14.10;99.90
24103;DHT22;12278;53.058;9.028;2023-10-08T19:39:40;14.10;99.90
24103;DHT22;12278;53.058;9.028;2023-10-08T19:43:41;14.10;99.90
24103;DHT22;12278;53.058;9.028;2023-10-08T19:47:43;14.10;99.90
24103;DHT22;12278;53.058;9.028;2023-10-08T19:51:44;14.00;99.90
24103;DHT22;12278;53.058;9.028;2023-10-08T19:55:46;13.90;99.90
24103;DHT22;12278;53.058;9.028;2023-10-08T19:59:49;13.80;99.90
24103;DHT22;12278;53.058;9.028;2023-10-08T20:03:50;13.70;99.90
24103;DHT22;12278;53.058;9.028;2023-10-08T20:07:51;13.70;99.90
24103;DHT22;12278;53.058;9.028;2023-10-08T20:11:53;13.70;99.90
24103;DHT22;12278;53.058;9.028;2023-10-08T20:15:54;13.70;99.90
24103;DHT22;12278;53.058;9.028;2023-10-08T20:19:55;13.70;99.90
24103;DHT22;12278;53.058;9.028;2023-10-08T20:23:56;13.60;99.90
24103;DHT22;12278;53.058;9.028;2023-10-08T20:27:56;13.60;99.90
24103;DHT22;12278;53.058;9.028;2023-10-08T20:31:57;13.60;99.90
24103;DHT22;12278;53.058;9.028;2023-10-08T20:36:00;13.50;99.90
24103;DHT22;12278;53.058;9.028;2023-10-08T20:40:01;13.40;99.90
24103;DHT22;12278;53.058;9.028;2023-10-08T20:44:06;13.50;99.90
24103;DHT22;12278;53.058;9.028;2023-10-08T20:48:07;13.40;99.90
24103;DHT22;12278;53.058;9.028;2023-10-08T20:52:08;13.40;99.90
24103;DHT22;12278;53.058;9.028;2023-10-08T20:56:09;13.40;99.90
24103;DHT22;12278;53.058;9.028;2023-10-08T21:00:11;13.50;99.90
24103;DHT22;12278;53.058;9.028;2023-10-08T21:04:17;13.40;99.90
24103;DHT22;12278;53.058;9.028;2023-10-08T21:08:18;13.40;99.90
24103;DHT22;12278;53.058;9.028;2023-10-08T21:12:21;13.40;99.90
24103;DHT22;12278;53.058;9.028;2023-10-08T21:16:22;13.40;99.90
24103;DHT22;12278;53.058;9.028;2023-10-08T21:20:25;13.40;99.90
24103;DHT22;12278;53.058;9.028;2023-10-08T21:24:28;13.40;99.90
24103;DHT22;12278;53.058;9.028;2023-10-08T21:28:29;13.30;99.90
24103;DHT22;12278;53.058;9.028;2023-10-08T21:32:29;13.30;99.90
24103;DHT22;12278;53.058;9.028;2023-10-08T21:36:31;13.40;99.90
24103;DHT22;12278;53.058;9.028;2023-10-08T21:40:32;13.40;99.90
24103;DHT22;12278;53.058;9.028;2023-10-08T21:44:32;13.30;99.90
24103;DHT22;12278;53.058;9.028;2023-10-08T21:48:33;13.30;99.90
24103;DHT22;12278;53.058;9.028;2023-10-08T21:52:35;13.30;99.90
24103;DHT22;12278;53.058;9.028;2023-10-08T21:56:36;13.30;99.90
24103;DHT22;12278;53.058;9.028;2023-10-08T22:00:36;13.30;99.90
24103;DHT22;12278;53.058;9.028;2023-10-08T22:04:47;13.30;99.90
24103;DHT22;12278;53.058;9.028;2023-10-08T22:08:48;13.30;99.90
24103;DHT22;12278;53.058;9.028;2023-10-08T22:12:49;13.30;99.90
24103;DHT22;12278;53.058;9.028;2023-10-08T22:16:54;13.30;99.90
24103;DHT22;12278;53.058;9.028;2023-10-08T22:20:55;13.30;99.90
24103;DHT22;12278;53.058;9.028;2023-10-08T22:24:55;13.30;99.90
24103;DHT22;12278;53.058;9.028;2023-10-08T22:28:56;13.30;99.90
24103;DHT22;12278;53.058;9.028;2023-10-08T22:32:57;13.30;99.90
24103;DHT22;12278;53.058;9.028;2023-10-08T22:36:59;13.30;99.90
24103;DHT22;12278;53.058;9.028;2023-10-08T22:41:19;13.20;99.90
24103;DHT22;12278;53.058;9.028;2023-10-08T22:45:23;13.20;99.90
24103;DHT22;12278;53.058;9.028;2023-10-08T22:49:30;13.20;99.90
24103;DHT22;12278;53.058;9.028;2023-10-08T22:53:32;13.20;99.90
24103;DHT22;12278;53.058;9.028;2023-10-08T22:57:36;13.20;99.90
24103;DHT22;12278;53.058;9.028;2023-10-08T23:01:40;13.10;99.90
24103;DHT22;12278;53.058;9.028;2023-10-08T23:05:42;13.10;99.90
24103;DHT22;12278;53.058;9.028;2023-10-08T23:09:44;13.10;99.90
24103;DHT22;12278;53.058;9.028;2023-10-08T23:13:45;13.20;99.90
24103;DHT22;12278;53.058;9.028;2023-10-08T23:17:47;13.10;99.90
24103;DHT22;12278;53.058;9.028;2023-10-08T23:21:48;13.10;99.90
24103;DHT22;12278;53.058;9.028;2023-10-08T23:25:49;13.10;99.90
24103;DHT22;12278;53.058;9.028;2023-10-08T23:29:50;13.00;99.90
24103;DHT22;12278;53.058;9.028;2023-10-08T23:33:51;13.00;99.90
24103;DHT22;12278;53.058;9.028;2023-10-08T23:37:53;12.90;99.90
24103;DHT22;12278;53.058;9.028;2023-10-08T23:42:05;12.90;99.90
24103;DHT22;12278;53.058;9.028;2023-10-08T23:46:26;12.90;99.90
24103;DHT22;12278;53.058;9.028;2023-10-08T23:50:33;12.90;99.90
24103;DHT22;12278;53.058;9.028;2023-10-08T23:54:34;13.00;99.90
24103;DHT22;12278;53.058;9.028;2023-10-08T23:58:37;13.00;99.90
